Aviation Digital Data Service (ADDS)

Output produced by METARs form (0152 UTC 20 September 2020)
found at http://www.aviationweather.gov/metar/data/
 
METAR text: ORER 200000Z 12005KT CAVOK 25/06 Q1009 NOSIG
Conditions at: ORER (ERBIL INTL , IQ) observed 0000 UTC 20 September 2020
Temperature: 25.0°C (77°F)
Dewpoint: 6.0°C (43°F) [RH = 30%]
Pressure (altimeter): 29.79 inches Hg (1009.0 mb)
Winds: from the ESE (120 degrees) at 6 MPH (5 knots; 2.6 m/s)
Visibility: 6 or more miles (10+ km)
Ceiling: ceiling and visibility are OK
Clouds: unknown
Weather: no significant weather observed at this time

METAR text: ORER 192300Z 12004KT CAVOK 24/06 Q1009 NOSIG
Conditions at: ORER (ERBIL INTL , IQ) observed 2300 UTC 19 September 2020
Temperature: 24.0°C (75°F)
Dewpoint: 6.0°C (43°F) [RH = 31%]
Pressure (altimeter): 29.79 inches Hg (1009.0 mb)
Winds: from the ESE (120 degrees) at 5 MPH (4 knots; 2.1 m/s)
Visibility: 6 or more miles (10+ km)
Ceiling: ceiling and visibility are OK
Clouds: unknown
Weather: no significant weather observed at this time

METAR text: ORER 192200Z 10006KT CAVOK 25/06 Q1009 NOSIG
Conditions at: ORER (ERBIL INTL , IQ) observed 2200 UTC 19 September 2020
Temperature: 25.0°C (77°F)
Dewpoint: 6.0°C (43°F) [RH = 30%]
Pressure (altimeter): 29.79 inches Hg (1009.0 mb)
Winds: from the E (100 degrees) at 7 MPH (6 knots; 3.1 m/s)
Visibility: 6 or more miles (10+ km)
Ceiling: ceiling and visibility are OK
Clouds: unknown
Weather: no significant weather observed at this time

METAR text: ORER 192100Z 14004KT CAVOK 25/06 Q1009 NOSIG
Conditions at: ORER (ERBIL INTL , IQ) observed 2100 UTC 19 September 2020
Temperature: 25.0°C (77°F)
Dewpoint: 6.0°C (43°F) [RH = 30%]
Pressure (altimeter): 29.79 inches Hg (1009.0 mb)
Winds: from the SE (140 degrees) at 5 MPH (4 knots; 2.1 m/s)
Visibility: 6 or more miles (10+ km)
Ceiling: ceiling and visibility are OK
Clouds: unknown
Weather: no significant weather observed at this time

METAR text: ORER 191900Z VRB02KT 9000 NSC 25/02 Q1009 NOSIG
Conditions at: ORER (ERBIL INTL , IQ) observed 1900 UTC 19 September 2020
Temperature: 25.0°C (77°F)
Dewpoint: 2.0°C (36°F) [RH = 22%]
Pressure (altimeter): 29.79 inches Hg (1009.0 mb)
Winds: variable direction winds at 2 MPH (2 knots; 1.0 m/s)
Visibility: 6 miles ( 9 km)
Ceiling: at least 12,000 feet AGL
Clouds: sky clear below 12,000 feet AGL
Weather: no significant weather observed at this time

METAR text: ORER 191800Z VRB02KT 9000 NSC 28/04 Q1009 NOSIG
Conditions at: ORER (ERBIL INTL , IQ) observed 1800 UTC 19 September 2020
Temperature: 28.0°C (82°F)
Dewpoint: 4.0°C (39°F) [RH = 22%]
Pressure (altimeter): 29.79 inches Hg (1009.0 mb)
Winds: variable direction winds at 2 MPH (2 knots; 1.0 m/s)
Visibility: 6 miles ( 9 km)
Ceiling: at least 12,000 feet AGL
Clouds: sky clear below 12,000 feet AGL
Weather: no significant weather observed at this time

METAR text: ORER 191700Z 21002KT 8000 NSC 29/04 Q1009 NOSIG
Conditions at: ORER (ERBIL INTL , IQ) observed 1700 UTC 19 September 2020
Temperature: 29.0°C (84°F)
Dewpoint: 4.0°C (39°F) [RH = 20%]
Pressure (altimeter): 29.79 inches Hg (1009.0 mb)
Winds: from the SSW (210 degrees) at 2 MPH (2 knots; 1.0 m/s)
Visibility: 5 miles ( 8 km)
Ceiling: at least 12,000 feet AGL
Clouds: sky clear below 12,000 feet AGL
Weather: no significant weather observed at this time

METAR text: ORER 191600Z 23004KT 9000 NSC 31/04 Q1008 NOSIG
Conditions at: ORER (ERBIL INTL , IQ) observed 1600 UTC 19 September 2020
Temperature: 31.0°C (88°F)
Dewpoint: 4.0°C (39°F) [RH = 18%]
Pressure (altimeter): 29.76 inches Hg (1008.0 mb)
Winds: from the SW (230 degrees) at 5 MPH (4 knots; 2.1 m/s)
Visibility: 6 miles ( 9 km)
Ceiling: at least 12,000 feet AGL
Clouds: sky clear below 12,000 feet AGL
Weather: no significant weather observed at this time

METAR text: ORER 191500Z 25004KT 9000 NSC 34/05 Q1008 NOSIG
Conditions at: ORER (ERBIL INTL , IQ) observed 1500 UTC 19 September 2020
Temperature: 34.0°C (93°F)
Dewpoint: 5.0°C (41°F) [RH = 16%]
Pressure (altimeter): 29.76 inches Hg (1008.0 mb)
Winds: from the WSW (250 degrees) at 5 MPH (4 knots; 2.1 m/s)
Visibility: 6 miles ( 9 km)
Ceiling: at least 12,000 feet AGL
Clouds: sky clear below 12,000 feet AGL
Weather: no significant weather observed at this time

METAR text: ORER 191400Z 25007KT 9000 NSC 36/06 Q1008 NOSIG
Conditions at: ORER (ERBIL INTL , IQ) observed 1400 UTC 19 September 2020
Temperature: 36.0°C (97°F)
Dewpoint: 6.0°C (43°F) [RH = 16%]
Pressure (altimeter): 29.76 inches Hg (1008.0 mb)
Winds: from the WSW (250 degrees) at 8 MPH (7 knots; 3.6 m/s)
Visibility: 6 miles ( 9 km)
Ceiling: at least 12,000 feet AGL
Clouds: sky clear below 12,000 feet AGL
Weather: no significant weather observed at this time

METAR text: ORER 191300Z 29006KT 9000 NSC 38/05 Q1008 NOSIG
Conditions at: ORER (ERBIL INTL , IQ) observed 1300 UTC 19 September 2020
Temperature: 38.0°C (100°F)
Dewpoint: 5.0°C (41°F) [RH = 13%]
Pressure (altimeter): 29.76 inches Hg (1008.0 mb)
Winds: from the WNW (290 degrees) at 7 MPH (6 knots; 3.1 m/s)
Visibility: 6 miles ( 9 km)
Ceiling: at least 12,000 feet AGL
Clouds: sky clear below 12,000 feet AGL
Weather: no significant weather observed at this time

METAR text: ORER 191200Z 24010KT CAVOK 37/07 Q1008 NOSIG
Conditions at: ORER (ERBIL INTL , IQ) observed 1200 UTC 19 September 2020
Temperature: 37.0°C (99°F)
Dewpoint: 7.0°C (45°F) [RH = 16%]
Pressure (altimeter): 29.76 inches Hg (1008.0 mb)
Winds: from the WSW (240 degrees) at 12 MPH (10 knots; 5.1 m/s)
Visibility: 6 or more miles (10+ km)
Ceiling: ceiling and visibility are OK
Clouds: unknown
Weather: no significant weather observed at this time

METAR text: ORER 191100Z 25010KT CAVOK 37/08 Q1009 NOSIG
Conditions at: ORER (ERBIL INTL , IQ) observed 1100 UTC 19 September 2020
Temperature: 37.0°C (99°F)
Dewpoint: 8.0°C (46°F) [RH = 17%]
Pressure (altimeter): 29.79 inches Hg (1009.0 mb)
Winds: from the WSW (250 degrees) at 12 MPH (10 knots; 5.1 m/s)
Visibility: 6 or more miles (10+ km)
Ceiling: ceiling and visibility are OK
Clouds: unknown
Weather: no significant weather observed at this time

METAR text: ORER 191000Z 22009KT 180V250 CAVOK 37/08 Q1009 NOSIG
Conditions at: ORER (ERBIL INTL , IQ) observed 1000 UTC 19 September 2020
Temperature: 37.0°C (99°F)
Dewpoint: 8.0°C (46°F) [RH = 17%]
Pressure (altimeter): 29.79 inches Hg (1009.0 mb)
Winds: from the SW (220 degrees) at 10 MPH (9 knots; 4.6 m/s)
Visibility: 6 or more miles (10+ km)
Ceiling: ceiling and visibility are OK
Clouds: unknown
Weather: no significant weather observed at this time

METAR text: ORER 190900Z 20008KT 150V240 CAVOK 36/08 Q1010 NOSIG
Conditions at: ORER (ERBIL INTL , IQ) observed 0900 UTC 19 September 2020
Temperature: 36.0°C (97°F)
Dewpoint: 8.0°C (46°F) [RH = 18%]
Pressure (altimeter): 29.82 inches Hg (1010.0 mb)
Winds: from the SSW (200 degrees) at 9 MPH (8 knots; 4.1 m/s)
Visibility: 6 or more miles (10+ km)
Ceiling: ceiling and visibility are OK
Clouds: unknown
Weather: no significant weather observed at this time

METAR text: ORER 190800Z 20008KT 160V230 CAVOK 35/07 Q1010 NOSIG
Conditions at: ORER (ERBIL INTL , IQ) observed 0800 UTC 19 September 2020
Temperature: 35.0°C (95°F)
Dewpoint: 7.0°C (45°F) [RH = 18%]
Pressure (altimeter): 29.82 inches Hg (1010.0 mb)
Winds: from the SSW (200 degrees) at 9 MPH (8 knots; 4.1 m/s)
Visibility: 6 or more miles (10+ km)
Ceiling: ceiling and visibility are OK
Clouds: unknown
Weather: no significant weather observed at this time

METAR text: ORER 190700Z 16007KT 140V200 CAVOK 34/07 Q1011 NOSIG
Conditions at: ORER (ERBIL INTL , IQ) observed 0700 UTC 19 September 2020
Temperature: 34.0°C (93°F)
Dewpoint: 7.0°C (45°F) [RH = 19%]
Pressure (altimeter): 29.85 inches Hg (1011.0 mb)
Winds: from the SSE (160 degrees) at 8 MPH (7 knots; 3.6 m/s)
Visibility: 6 or more miles (10+ km)
Ceiling: ceiling and visibility are OK
Clouds: unknown
Weather: no significant weather observed at this time

METAR text: ORER 190500Z 32005KT 9000 NSC 30/07 Q1010 NOSIG
Conditions at: ORER (ERBIL INTL , IQ) observed 0500 UTC 19 September 2020
Temperature: 30.0°C (86°F)
Dewpoint: 7.0°C (45°F) [RH = 24%]
Pressure (altimeter): 29.82 inches Hg (1010.0 mb)
Winds: from the NW (320 degrees) at 6 MPH (5 knots; 2.6 m/s)
Visibility: 6 miles ( 9 km)
Ceiling: at least 12,000 feet AGL
Clouds: sky clear below 12,000 feet AGL
Weather: no significant weather observed at this time

METAR text: ORER 190400Z 32005KT 9000 NSC 26/07 Q1010 NOSIG
Conditions at: ORER (ERBIL INTL , IQ) observed 0400 UTC 19 September 2020
Temperature: 26.0°C (79°F)
Dewpoint: 7.0°C (45°F) [RH = 30%]
Pressure (altimeter): 29.82 inches Hg (1010.0 mb)
Winds: from the NW (320 degrees) at 6 MPH (5 knots; 2.6 m/s)
Visibility: 6 miles ( 9 km)
Ceiling: at least 12,000 feet AGL
Clouds: sky clear below 12,000 feet AGL
Weather: no significant weather observed at this time

METAR text: ORER 190300Z 16006KT CAVOK 24/06 Q1009 NOSIG
Conditions at: ORER (ERBIL INTL , IQ) observed 0300 UTC 19 September 2020
Temperature: 24.0°C (75°F)
Dewpoint: 6.0°C (43°F) [RH = 31%]
Pressure (altimeter): 29.79 inches Hg (1009.0 mb)
Winds: from the SSE (160 degrees) at 7 MPH (6 knots; 3.1 m/s)
Visibility: 6 or more miles (10+ km)
Ceiling: ceiling and visibility are OK
Clouds: unknown
Weather: no significant weather observed at this time

METAR text: ORER 190000Z 15006KT CAVOK 24/05 Q1009 NOSIG
Conditions at: ORER (ERBIL INTL , IQ) observed 0000 UTC 19 September 2020
Temperature: 24.0°C (75°F)
Dewpoint: 5.0°C (41°F) [RH = 29%]
Pressure (altimeter): 29.79 inches Hg (1009.0 mb)
Winds: from the SSE (150 degrees) at 7 MPH (6 knots; 3.1 m/s)
Visibility: 6 or more miles (10+ km)
Ceiling: ceiling and visibility are OK
Clouds: unknown
Weather: no significant weather observed at this time

METAR text: ORER 182100Z 16005KT CAVOK 26/03 Q1010 NOSIG
Conditions at: ORER (ERBIL INTL , IQ) observed 2100 UTC 18 September 2020
Temperature: 26.0°C (79°F)
Dewpoint: 3.0°C (37°F) [RH = 23%]
Pressure (altimeter): 29.82 inches Hg (1010.0 mb)
Winds: from the SSE (160 degrees) at 6 MPH (5 knots; 2.6 m/s)
Visibility: 6 or more miles (10+ km)
Ceiling: ceiling and visibility are OK
Clouds: unknown
Weather: no significant weather observed at this time

METAR text: ORER 181800Z 28005KT 9000 NSC 32/03 Q1010 NOSIG
Conditions at: ORER (ERBIL INTL , IQ) observed 1800 UTC 18 September 2020
Temperature: 32.0°C (90°F)
Dewpoint: 3.0°C (37°F) [RH = 16%]
Pressure (altimeter): 29.82 inches Hg (1010.0 mb)
Winds: from the W (280 degrees) at 6 MPH (5 knots; 2.6 m/s)
Visibility: 6 miles ( 9 km)
Ceiling: at least 12,000 feet AGL
Clouds: sky clear below 12,000 feet AGL
Weather: no significant weather observed at this time

METAR text: ORER 181500Z 25007KT 9000 NSC 37/03 Q1009 NOSIG
Conditions at: ORER (ERBIL INTL , IQ) observed 1500 UTC 18 September 2020
Temperature: 37.0°C (99°F)
Dewpoint: 3.0°C (37°F) [RH = 12%]
Pressure (altimeter): 29.79 inches Hg (1009.0 mb)
Winds: from the WSW (250 degrees) at 8 MPH (7 knots; 3.6 m/s)
Visibility: 6 miles ( 9 km)
Ceiling: at least 12,000 feet AGL
Clouds: sky clear below 12,000 feet AGL
Weather: no significant weather observed at this time

Forecast for: ORER (ERBIL INTL , IQ)
Text: TAF ORER 192300Z 2000/2024 VRB03KT CAVOK
Forecast period: 0000 to 0600 UTC 20 September 2020
Forecast type: FROM: standard forecast or significant change
Winds: variable direction winds at 3 MPH (3 knots; 1.5 m/s)
Visibility: 6 or more miles (10+ km)
Ceiling: unknown
Clouds: missing
Weather: NSW  (no significant weather)
Text: BECMG 2006/2008 22004KT
Forecast period: 0600 UTC 20 September 2020 to 0000 UTC 21 September 2020
Forecast type: BECOMING: Conditions expected to become as follows by 0800 UTC 20 September 2020
Winds: from the SW (220 degrees) at 5 MPH (4 knots; 2.1 m/s)
Visibility: 6 or more miles (10+ km)
Ceiling: unknown
Clouds: missing
Weather: NSW  (no significant weather)